sensor_id;sensor_type;location;lat;lon;timestamp;P1;durP1;ratioP1;P2;durP2;ratioP2
33826;SDS011;20128;45.582;5.298;2023-04-03T00:01:12;6.80;;;3.22;;
33826;SDS011;20128;45.582;5.298;2023-04-03T00:03:38;4.20;;;2.47;;
33826;SDS011;20128;45.582;5.298;2023-04-03T00:06:04;4.22;;;2.55;;
33826;SDS011;20128;45.582;5.298;2023-04-03T00:08:31;5.45;;;2.72;;
33826;SDS011;20128;45.582;5.298;2023-04-03T00:10:57;7.25;;;2.90;;
33826;SDS011;20128;45.582;5.298;2023-04-03T00:13:23;9.98;;;3.20;;
33826;SDS011;20128;45.582;5.298;2023-04-03T00:15:50;5.20;;;2.85;;
33826;SDS011;20128;45.582;5.298;2023-04-03T00:18:16;6.20;;;2.80;;
33826;SDS011;20128;45.582;5.298;2023-04-03T00:20:42;6.07;;;3.08;;
33826;SDS011;20128;45.582;5.298;2023-04-03T00:23:08;4.30;;;2.80;;
33826;SDS011;20128;45.582;5.298;2023-04-03T00:25:33;6.30;;;3.20;;
33826;SDS011;20128;45.582;5.298;2023-04-03T00:27:59;5.00;;;2.85;;
33826;SDS011;20128;45.582;5.298;2023-04-03T00:30:25;7.40;;;3.13;;
33826;SDS011;20128;45.582;5.298;2023-04-03T00:32:51;7.32;;;2.80;;
33826;SDS011;20128;45.582;5.298;2023-04-03T00:35:17;6.32;;;3.53;;
33826;SDS011;20128;45.582;5.298;2023-04-03T00:37:44;5.40;;;3.38;;
33826;SDS011;20128;45.582;5.298;2023-04-03T00:40:11;8.48;;;3.42;;
33826;SDS011;20128;45.582;5.298;2023-04-03T00:42:38;8.10;;;3.25;;
33826;SDS011;20128;45.582;5.298;2023-04-03T00:47:31;6.30;;;4.03;;
33826;SDS011;20128;45.582;5.298;2023-04-03T00:49:57;11.20;;;3.72;;
33826;SDS011;20128;45.582;5.298;2023-04-03T00:52:24;7.97;;;3.08;;
33826;SDS011;20128;45.582;5.298;2023-04-03T00:54:54;5.97;;;3.58;;
33826;SDS011;20128;45.582;5.298;2023-04-03T00:57:26;8.13;;;3.97;;
33826;SDS011;20128;45.582;5.298;2023-04-03T00:59:54;11.40;;;3.78;;
33826;SDS011;20128;45.582;5.298;2023-04-03T01:02:24;6.55;;;3.20;;
33826;SDS011;20128;45.582;5.298;2023-04-03T01:04:51;9.10;;;3.28;;
33826;SDS011;20128;45.582;5.298;2023-04-03T01:09:45;6.25;;;4.05;;
33826;SDS011;20128;45.582;5.298;2023-04-03T01:14:57;7.60;;;3.80;;
33826;SDS011;20128;45.582;5.298;2023-04-03T01:19:55;7.40;;;3.70;;
33826;SDS011;20128;45.582;5.298;2023-04-03T01:25:26;7.60;;;4.00;;
33826;SDS011;20128;45.582;5.298;2023-04-03T01:27:52;16.70;;;4.13;;
33826;SDS011;20128;45.582;5.298;2023-04-03T01:30:18;5.78;;;3.22;;
33826;SDS011;20128;45.582;5.298;2023-04-03T01:32:45;4.95;;;2.90;;
33826;SDS011;20128;45.582;5.298;2023-04-03T01:35:11;6.13;;;2.53;;
33826;SDS011;20128;45.582;5.298;2023-04-03T01:37:37;3.33;;;2.60;;
33826;SDS011;20128;45.582;5.298;2023-04-03T01:40:03;4.65;;;2.15;;
33826;SDS011;20128;45.582;5.298;2023-04-03T01:42:30;4.60;;;2.33;;
33826;SDS011;20128;45.582;5.298;2023-04-03T01:44:56;2.55;;;1.55;;
33826;SDS011;20128;45.582;5.298;2023-04-03T01:47:21;5.72;;;2.00;;
33826;SDS011;20128;45.582;5.298;2023-04-03T01:49:47;2.45;;;1.60;;
33826;SDS011;20128;45.582;5.298;2023-04-03T01:52:13;3.63;;;2.15;;
33826;SDS011;20128;45.582;5.298;2023-04-03T01:54:39;4.85;;;2.17;;
33826;SDS011;20128;45.582;5.298;2023-04-03T01:57:04;3.33;;;2.20;;
33826;SDS011;20128;45.582;5.298;2023-04-03T01:59:30;3.38;;;2.33;;
33826;SDS011;20128;45.582;5.298;2023-04-03T02:01:56;4.28;;;2.25;;
33826;SDS011;20128;45.582;5.298;2023-04-03T02:04:21;4.05;;;2.22;;
33826;SDS011;20128;45.582;5.298;2023-04-03T02:06:47;2.33;;;1.88;;
33826;SDS011;20128;45.582;5.298;2023-04-03T02:09:13;3.10;;;2.40;;
33826;SDS011;20128;45.582;5.298;2023-04-03T02:11:39;5.38;;;2.80;;
33826;SDS011;20128;45.582;5.298;2023-04-03T02:14:05;3.63;;;2.40;;
33826;SDS011;20128;45.582;5.298;2023-04-03T02:16:31;4.07;;;2.35;;
33826;SDS011;20128;45.582;5.298;2023-04-03T02:18:56;3.67;;;2.15;;
33826;SDS011;20128;45.582;5.298;2023-04-03T02:21:22;6.97;;;2.60;;
33826;SDS011;20128;45.582;5.298;2023-04-03T02:23:48;3.55;;;2.30;;
33826;SDS011;20128;45.582;5.298;2023-04-03T02:26:15;3.97;;;2.40;;
33826;SDS011;20128;45.582;5.298;2023-04-03T02:28:41;3.80;;;2.20;;
33826;SDS011;20128;45.582;5.298;2023-04-03T02:31:08;4.75;;;2.50;;
33826;SDS011;20128;45.582;5.298;2023-04-03T02:33:35;4.05;;;2.30;;
33826;SDS011;20128;45.582;5.298;2023-04-03T02:36:02;4.35;;;2.42;;
33826;SDS011;20128;45.582;5.298;2023-04-03T02:38:30;4.22;;;2.78;;
33826;SDS011;20128;45.582;5.298;2023-04-03T02:41:02;5.03;;;2.22;;
33826;SDS011;20128;45.582;5.298;2023-04-03T02:43:29;3.55;;;2.75;;
33826;SDS011;20128;45.582;5.298;2023-04-03T02:45:55;4.45;;;2.58;;
33826;SDS011;20128;45.582;5.298;2023-04-03T02:48:21;5.05;;;2.58;;
33826;SDS011;20128;45.582;5.298;2023-04-03T02:50:48;5.22;;;2.40;;
33826;SDS011;20128;45.582;5.298;2023-04-03T02:53:14;3.25;;;2.08;;
33826;SDS011;20128;45.582;5.298;2023-04-03T02:55:40;2.45;;;2.20;;
33826;SDS011;20128;45.582;5.298;2023-04-03T02:58:06;3.10;;;2.30;;
33826;SDS011;20128;45.582;5.298;2023-04-03T03:00:32;6.43;;;2.60;;
33826;SDS011;20128;45.582;5.298;2023-04-03T03:02:58;3.13;;;2.38;;
33826;SDS011;20128;45.582;5.298;2023-04-03T03:05:24;3.53;;;2.30;;
33826;SDS011;20128;45.582;5.298;2023-04-03T03:07:51;3.05;;;2.22;;
33826;SDS011;20128;45.582;5.298;2023-04-03T03:10:16;3.58;;;2.38;;
33826;SDS011;20128;45.582;5.298;2023-04-03T03:12:42;3.08;;;2.20;;
33826;SDS011;20128;45.582;5.298;2023-04-03T03:15:08;3.25;;;2.47;;
33826;SDS011;20128;45.582;5.298;2023-04-03T03:17:34;4.45;;;2.55;;
33826;SDS011;20128;45.582;5.298;2023-04-03T03:20:01;3.28;;;2.33;;
33826;SDS011;20128;45.582;5.298;2023-04-03T03:22:27;5.70;;;2.50;;
33826;SDS011;20128;45.582;5.298;2023-04-03T03:24:53;6.22;;;2.25;;
33826;SDS011;20128;45.582;5.298;2023-04-03T03:27:19;4.85;;;2.38;;
33826;SDS011;20128;45.582;5.298;2023-04-03T03:29:45;3.50;;;2.50;;
33826;SDS011;20128;45.582;5.298;2023-04-03T03:32:11;4.93;;;2.40;;
33826;SDS011;20128;45.582;5.298;2023-04-03T03:34:37;4.95;;;2.97;;
33826;SDS011;20128;45.582;5.298;2023-04-03T03:37:03;2.85;;;2.30;;
33826;SDS011;20128;45.582;5.298;2023-04-03T03:39:29;2.72;;;2.00;;
33826;SDS011;20128;45.582;5.298;2023-04-03T03:41:54;3.00;;;2.50;;
33826;SDS011;20128;45.582;5.298;2023-04-03T03:44:20;3.05;;;2.50;;
33826;SDS011;20128;45.582;5.298;2023-04-03T03:46:46;2.40;;;2.20;;
33826;SDS011;20128;45.582;5.298;2023-04-03T03:49:12;6.10;;;2.70;;
33826;SDS011;20128;45.582;5.298;2023-04-03T03:51:38;6.25;;;3.17;;
33826;SDS011;20128;45.582;5.298;2023-04-03T03:54:04;5.22;;;3.22;;
33826;SDS011;20128;45.582;5.298;2023-04-03T03:56:30;3.85;;;3.05;;
33826;SDS011;20128;45.582;5.298;2023-04-03T03:58:56;4.03;;;3.03;;
33826;SDS011;20128;45.582;5.298;2023-04-03T04:01:22;3.10;;;2.70;;
33826;SDS011;20128;45.582;5.298;2023-04-03T04:03:49;6.32;;;2.92;;
33826;SDS011;20128;45.582;5.298;2023-04-03T04:06:14;3.65;;;2.80;;
33826;SDS011;20128;45.582;5.298;2023-04-03T04:08:40;6.18;;;3.03;;
33826;SDS011;20128;45.582;5.298;2023-04-03T04:11:06;5.53;;;2.85;;
33826;SDS011;20128;45.582;5.298;2023-04-03T04:13:32;4.03;;;3.15;;
33826;SDS011;20128;45.582;5.298;2023-04-03T04:15:58;5.65;;;3.00;;
33826;SDS011;20128;45.582;5.298;2023-04-03T04:18:24;3.50;;;2.45;;
33826;SDS011;20128;45.582;5.298;2023-04-03T04:20:50;3.45;;;2.85;;
33826;SDS011;20128;45.582;5.298;2023-04-03T04:23:16;4.18;;;3.00;;
33826;SDS011;20128;45.582;5.298;2023-04-03T04:25:46;5.60;;;2.58;;
33826;SDS011;20128;45.582;5.298;2023-04-03T04:28:12;5.18;;;2.85;;
33826;SDS011;20128;45.582;5.298;2023-04-03T04:30:38;5.05;;;2.80;;
33826;SDS011;20128;45.582;5.298;2023-04-03T04:33:04;4.82;;;3.00;;
33826;SDS011;20128;45.582;5.298;2023-04-03T04:35:30;4.10;;;3.10;;
33826;SDS011;20128;45.582;5.298;2023-04-03T04:37:55;3.35;;;2.72;;
33826;SDS011;20128;45.582;5.298;2023-04-03T04:40:21;4.93;;;2.90;;
33826;SDS011;20128;45.582;5.298;2023-04-03T04:42:47;3.72;;;2.75;;
33826;SDS011;20128;45.582;5.298;2023-04-03T04:45:13;4.43;;;3.33;;
33826;SDS011;20128;45.582;5.298;2023-04-03T04:47:39;4.55;;;3.20;;
33826;SDS011;20128;45.582;5.298;2023-04-03T04:50:05;4.50;;;3.30;;
33826;SDS011;20128;45.582;5.298;2023-04-03T04:52:31;4.70;;;3.35;;
33826;SDS011;20128;45.582;5.298;2023-04-03T04:54:57;4.00;;;2.90;;
33826;SDS011;20128;45.582;5.298;2023-04-03T04:57:23;3.95;;;3.28;;
33826;SDS011;20128;45.582;5.298;2023-04-03T04:59:48;3.22;;;2.65;;
33826;SDS011;20128;45.582;5.298;2023-04-03T05:02:14;3.47;;;2.88;;
33826;SDS011;20128;45.582;5.298;2023-04-03T05:04:40;4.03;;;2.83;;
33826;SDS011;20128;45.582;5.298;2023-04-03T05:07:06;3.50;;;2.80;;
33826;SDS011;20128;45.582;5.298;2023-04-03T05:09:32;3.53;;;2.85;;
33826;SDS011;20128;45.582;5.298;2023-04-03T05:11:57;3.80;;;2.97;;
33826;SDS011;20128;45.582;5.298;2023-04-03T05:14:23;3.97;;;2.80;;
33826;SDS011;20128;45.582;5.298;2023-04-03T05:16:49;3.20;;;2.53;;
33826;SDS011;20128;45.582;5.298;2023-04-03T05:19:19;4.35;;;2.65;;
33826;SDS011;20128;45.582;5.298;2023-04-03T05:21:47;4.20;;;3.03;;
33826;SDS011;20128;45.582;5.298;2023-04-03T05:24:14;3.05;;;2.67;;
33826;SDS011;20128;45.582;5.298;2023-04-03T05:26:41;5.22;;;3.10;;
33826;SDS011;20128;45.582;5.298;2023-04-03T05:29:07;7.50;;;2.90;;
33826;SDS011;20128;45.582;5.298;2023-04-03T05:31:33;3.33;;;2.65;;
33826;SDS011;20128;45.582;5.298;2023-04-03T05:33:58;4.07;;;3.08;;
33826;SDS011;20128;45.582;5.298;2023-04-03T05:36:24;6.10;;;3.30;;
33826;SDS011;20128;45.582;5.298;2023-04-03T05:38:50;5.18;;;3.58;;
33826;SDS011;20128;45.582;5.298;2023-04-03T05:41:16;4.80;;;2.83;;
33826;SDS011;20128;45.582;5.298;2023-04-03T05:43:42;4.72;;;2.80;;
33826;SDS011;20128;45.582;5.298;2023-04-03T05:46:11;4.07;;;2.78;;
33826;SDS011;20128;45.582;5.298;2023-04-03T05:48:38;4.05;;;2.50;;
33826;SDS011;20128;45.582;5.298;2023-04-03T05:51:04;5.40;;;2.67;;
33826;SDS011;20128;45.582;5.298;2023-04-03T05:53:31;5.63;;;2.60;;
33826;SDS011;20128;45.582;5.298;2023-04-03T05:56:01;4.40;;;2.80;;
33826;SDS011;20128;45.582;5.298;2023-04-03T05:58:26;4.95;;;2.70;;
33826;SDS011;20128;45.582;5.298;2023-04-03T06:00:52;5.00;;;2.63;;
33826;SDS011;20128;45.582;5.298;2023-04-03T06:03:17;5.72;;;3.00;;
33826;SDS011;20128;45.582;5.298;2023-04-03T06:05:43;3.47;;;3.05;;
33826;SDS011;20128;45.582;5.298;2023-04-03T06:08:09;4.78;;;3.30;;
33826;SDS011;20128;45.582;5.298;2023-04-03T06:10:35;6.38;;;3.60;;
33826;SDS011;20128;45.582;5.298;2023-04-03T06:13:01;7.05;;;3.53;;
33826;SDS011;20128;45.582;5.298;2023-04-03T06:15:27;5.57;;;3.30;;
33826;SDS011;20128;45.582;5.298;2023-04-03T06:17:53;7.55;;;3.80;;
33826;SDS011;20128;45.582;5.298;2023-04-03T06:20:18;7.68;;;3.70;;
33826;SDS011;20128;45.582;5.298;2023-04-03T06:22:44;5.68;;;4.10;;
33826;SDS011;20128;45.582;5.298;2023-04-03T06:25:10;5.70;;;4.10;;
33826;SDS011;20128;45.582;5.298;2023-04-03T06:27:37;5.13;;;3.83;;
33826;SDS011;20128;45.582;5.298;2023-04-03T06:30:03;6.80;;;3.90;;
33826;SDS011;20128;45.582;5.298;2023-04-03T06:32:30;6.40;;;4.57;;
33826;SDS011;20128;45.582;5.298;2023-04-03T06:34:56;5.75;;;4.15;;
33826;SDS011;20128;45.582;5.298;2023-04-03T06:37:22;6.05;;;4.18;;
33826;SDS011;20128;45.582;5.298;2023-04-03T06:39:52;6.20;;;4.05;;
33826;SDS011;20128;45.582;5.298;2023-04-03T06:42:17;9.65;;;5.18;;
33826;SDS011;20128;45.582;5.298;2023-04-03T06:44:43;6.68;;;4.57;;
33826;SDS011;20128;45.582;5.298;2023-04-03T06:47:10;5.50;;;4.53;;
33826;SDS011;20128;45.582;5.298;2023-04-03T06:49:38;6.63;;;4.40;;
33826;SDS011;20128;45.582;5.298;2023-04-03T06:52:04;8.40;;;4.63;;
33826;SDS011;20128;45.582;5.298;2023-04-03T06:54:30;7.10;;;4.72;;
33826;SDS011;20128;45.582;5.298;2023-04-03T06:56:56;6.15;;;4.88;;
33826;SDS011;20128;45.582;5.298;2023-04-03T06:59:22;5.55;;;4.13;;
33826;SDS011;20128;45.582;5.298;2023-04-03T07:01:48;5.35;;;3.72;;
33826;SDS011;20128;45.582;5.298;2023-04-03T07:04:14;6.50;;;4.00;;
33826;SDS011;20128;45.582;5.298;2023-04-03T07:06:40;8.93;;;3.97;;
33826;SDS011;20128;45.582;5.298;2023-04-03T07:09:07;6.20;;;4.28;;
33826;SDS011;20128;45.582;5.298;2023-04-03T07:11:32;6.70;;;4.05;;
33826;SDS011;20128;45.582;5.298;2023-04-03T07:13:58;5.22;;;4.07;;
33826;SDS011;20128;45.582;5.298;2023-04-03T07:16:24;4.68;;;3.53;;
33826;SDS011;20128;45.582;5.298;2023-04-03T07:18:50;6.70;;;4.65;;
33826;SDS011;20128;45.582;5.298;2023-04-03T07:21:16;7.80;;;4.90;;
33826;SDS011;20128;45.582;5.298;2023-04-03T07:23:41;6.57;;;4.88;;
33826;SDS011;20128;45.582;5.298;2023-04-03T07:26:07;9.98;;;5.40;;
33826;SDS011;20128;45.582;5.298;2023-04-03T07:28:33;7.63;;;5.68;;
33826;SDS011;20128;45.582;5.298;2023-04-03T07:31:06;11.20;;;6.30;;
33826;SDS011;20128;45.582;5.298;2023-04-03T07:33:33;9.02;;;6.28;;
33826;SDS011;20128;45.582;5.298;2023-04-03T07:36:00;12.32;;;7.70;;
33826;SDS011;20128;45.582;5.298;2023-04-03T07:38:28;10.35;;;7.00;;
33826;SDS011;20128;45.582;5.298;2023-04-03T07:40:54;13.48;;;8.35;;
33826;SDS011;20128;45.582;5.298;2023-04-03T07:43:20;12.18;;;8.10;;
33826;SDS011;20128;45.582;5.298;2023-04-03T07:45:47;11.77;;;8.95;;
33826;SDS011;20128;45.582;5.298;2023-04-03T07:48:17;12.32;;;8.57;;
33826;SDS011;20128;45.582;5.298;2023-04-03T07:50:48;10.45;;;7.47;;
33826;SDS011;20128;45.582;5.298;2023-04-03T07:53:14;12.35;;;7.85;;
33826;SDS011;20128;45.582;5.298;2023-04-03T07:55:40;12.95;;;8.10;;
33826;SDS011;20128;45.582;5.298;2023-04-03T07:58:13;11.80;;;8.57;;
33826;SDS011;20128;45.582;5.298;2023-04-03T08:00:40;11.23;;;8.98;;
33826;SDS011;20128;45.582;5.298;2023-04-03T08:03:06;17.88;;;8.43;;
33826;SDS011;20128;45.582;5.298;2023-04-03T08:05:41;17.35;;;9.90;;
33826;SDS011;20128;45.582;5.298;2023-04-03T08:08:08;14.98;;;10.48;;
33826;SDS011;20128;45.582;5.298;2023-04-03T08:10:35;15.00;;;10.27;;
33826;SDS011;20128;45.582;5.298;2023-04-03T08:13:01;16.42;;;10.15;;
33826;SDS011;20128;45.582;5.298;2023-04-03T08:15:27;16.65;;;10.25;;
33826;SDS011;20128;45.582;5.298;2023-04-03T08:17:54;14.88;;;10.20;;
33826;SDS011;20128;45.582;5.298;2023-04-03T08:20:20;15.88;;;9.98;;
33826;SDS011;20128;45.582;5.298;2023-04-03T08:22:46;19.25;;;11.43;;
33826;SDS011;20128;45.582;5.298;2023-04-03T08:25:12;14.93;;;10.60;;
33826;SDS011;20128;45.582;5.298;2023-04-03T08:27:37;15.40;;;9.82;;
33826;SDS011;20128;45.582;5.298;2023-04-03T08:30:03;17.55;;;9.65;;
33826;SDS011;20128;45.582;5.298;2023-04-03T08:32:29;17.08;;;9.05;;
33826;SDS011;20128;45.582;5.298;2023-04-03T08:34:55;10.40;;;6.55;;
33826;SDS011;20128;45.582;5.298;2023-04-03T08:37:21;19.52;;;9.57;;
33826;SDS011;20128;45.582;5.298;2023-04-03T08:39:47;13.07;;;9.20;;
33826;SDS011;20128;45.582;5.298;2023-04-03T08:42:19;12.25;;;8.75;;
33826;SDS011;20128;45.582;5.298;2023-04-03T08:44:55;12.32;;;8.65;;
33826;SDS011;20128;45.582;5.298;2023-04-03T08:47:47;13.80;;;9.13;;
33826;SDS011;20128;45.582;5.298;2023-04-03T08:50:32;14.02;;;7.55;;
33826;SDS011;20128;45.582;5.298;2023-04-03T08:53:03;12.73;;;8.52;;
33826;SDS011;20128;45.582;5.298;2023-04-03T08:55:33;11.63;;;8.70;;
33826;SDS011;20128;45.582;5.298;2023-04-03T08:58:05;16.10;;;9.57;;
33826;SDS011;20128;45.582;5.298;2023-04-03T09:00:40;17.27;;;8.85;;
33826;SDS011;20128;45.582;5.298;2023-04-03T09:03:10;11.02;;;7.35;;
33826;SDS011;20128;45.582;5.298;2023-04-03T09:08:23;13.95;;;8.85;;
33826;SDS011;20128;45.582;5.298;2023-04-03T09:13:54;11.70;;;8.07;;
33826;SDS011;20128;45.582;5.298;2023-04-03T09:19:24;9.40;;;7.15;;
33826;SDS011;20128;45.582;5.298;2023-04-03T09:21:56;10.32;;;7.70;;
33826;SDS011;20128;45.582;5.298;2023-04-03T09:24:23;11.65;;;7.07;;
33826;SDS011;20128;45.582;5.298;2023-04-03T09:26:56;9.65;;;7.15;;
33826;SDS011;20128;45.582;5.298;2023-04-03T09:29:27;9.43;;;6.55;;
33826;SDS011;20128;45.582;5.298;2023-04-03T09:31:56;8.48;;;5.80;;
33826;SDS011;20128;45.582;5.298;2023-04-03T09:34:27;17.88;;;8.23;;
33826;SDS011;20128;45.582;5.298;2023-04-03T09:37:00;16.17;;;9.38;;
33826;SDS011;20128;45.582;5.298;2023-04-03T09:39:54;30.08;;;12.52;;
33826;SDS011;20128;45.582;5.298;2023-04-03T09:42:21;12.60;;;6.82;;
33826;SDS011;20128;45.582;5.298;2023-04-03T09:44:56;14.63;;;9.18;;
33826;SDS011;20128;45.582;5.298;2023-04-03T09:52:41;18.98;;;10.88;;
33826;SDS011;20128;45.582;5.298;2023-04-03T09:55:16;16.70;;;8.13;;
33826;SDS011;20128;45.582;5.298;2023-04-03T09:57:46;14.50;;;7.85;;
33826;SDS011;20128;45.582;5.298;2023-04-03T10:03:00;11.43;;;8.15;;
33826;SDS011;20128;45.582;5.298;2023-04-03T10:05:37;11.40;;;7.45;;
33826;SDS011;20128;45.582;5.298;2023-04-03T10:10:46;13.75;;;7.88;;
33826;SDS011;20128;45.582;5.298;2023-04-03T10:13:14;12.38;;;7.28;;
33826;SDS011;20128;45.582;5.298;2023-04-03T10:15:48;16.90;;;8.75;;
33826;SDS011;20128;45.582;5.298;2023-04-03T10:21:27;11.95;;;6.60;;
33826;SDS011;20128;45.582;5.298;2023-04-03T10:24:06;9.88;;;6.95;;
33826;SDS011;20128;45.582;5.298;2023-04-03T10:34:45;11.00;;;7.13;;
33826;SDS011;20128;45.582;5.298;2023-04-03T10:37:22;10.50;;;6.95;;
33826;SDS011;20128;45.582;5.298;2023-04-03T10:45:48;22.83;;;12.57;;
33826;SDS011;20128;45.582;5.298;2023-04-03T10:51:15;12.68;;;7.47;;
33826;SDS011;20128;45.582;5.298;2023-04-03T10:54:24;10.27;;;7.07;;
33826;SDS011;20128;45.582;5.298;2023-04-03T10:56:50;10.93;;;6.55;;
33826;SDS011;20128;45.582;5.298;2023-04-03T10:59:37;10.35;;;6.63;;
33826;SDS011;20128;45.582;5.298;2023-04-03T11:04:52;11.48;;;6.47;;
33826;SDS011;20128;45.582;5.298;2023-04-03T11:07:41;10.35;;;6.80;;
33826;SDS011;20128;45.582;5.298;2023-04-03T11:10:15;10.82;;;7.05;;
33826;SDS011;20128;45.582;5.298;2023-04-03T11:12:51;8.25;;;5.78;;
33826;SDS011;20128;45.582;5.298;2023-04-03T11:15:30;9.77;;;5.65;;
33826;SDS011;20128;45.582;5.298;2023-04-03T11:17:59;9.25;;;6.72;;
33826;SDS011;20128;45.582;5.298;2023-04-03T11:20:32;9.15;;;6.07;;
33826;SDS011;20128;45.582;5.298;2023-04-03T11:25:54;11.25;;;6.55;;
33826;SDS011;20128;45.582;5.298;2023-04-03T11:28:26;8.00;;;6.20;;
33826;SDS011;20128;45.582;5.298;2023-04-03T11:31:13;10.70;;;7.13;;
33826;SDS011;20128;45.582;5.298;2023-04-03T11:34:14;9.05;;;6.65;;
33826;SDS011;20128;45.582;5.298;2023-04-03T11:36:57;8.82;;;5.68;;
33826;SDS011;20128;45.582;5.298;2023-04-03T11:39:26;11.32;;;7.05;;
33826;SDS011;20128;45.582;5.298;2023-04-03T11:44:45;9.82;;;7.20;;
33826;SDS011;20128;45.582;5.298;2023-04-03T11:47:11;8.88;;;6.00;;
33826;SDS011;20128;45.582;5.298;2023-04-03T11:50:03;11.02;;;7.57;;
33826;SDS011;20128;45.582;5.298;2023-04-03T12:05:50;10.02;;;6.40;;
33826;SDS011;20128;45.582;5.298;2023-04-03T12:13:39;9.65;;;5.90;;
33826;SDS011;20128;45.582;5.298;2023-04-03T12:26:44;10.43;;;6.20;;
33826;SDS011;20128;45.582;5.298;2023-04-03T12:40:26;9.45;;;6.60;;
33826;SDS011;20128;45.582;5.298;2023-04-03T12:48:38;12.07;;;7.32;;
33826;SDS011;20128;45.582;5.298;2023-04-03T12:54:00;16.17;;;5.82;;
33826;SDS011;20128;45.582;5.298;2023-04-03T12:56:29;31.60;;;9.50;;
33826;SDS011;20128;45.582;5.298;2023-04-03T13:01:53;9.55;;;6.60;;
33826;SDS011;20128;45.582;5.298;2023-04-03T13:04:20;10.48;;;6.63;;
33826;SDS011;20128;45.582;5.298;2023-04-03T13:06:46;14.27;;;6.00;;
33826;SDS011;20128;45.582;5.298;2023-04-03T13:09:22;7.43;;;5.68;;
33826;SDS011;20128;45.582;5.298;2023-04-03T13:12:11;12.30;;;6.40;;
33826;SDS011;20128;45.582;5.298;2023-04-03T13:14:39;14.25;;;6.28;;
33826;SDS011;20128;45.582;5.298;2023-04-03T13:17:15;11.30;;;5.45;;
33826;SDS011;20128;45.582;5.298;2023-04-03T13:19:42;10.00;;;6.22;;
33826;SDS011;20128;45.582;5.298;2023-04-03T13:24:53;15.95;;;6.32;;
33826;SDS011;20128;45.582;5.298;2023-04-03T13:27:23;8.95;;;5.63;;
33826;SDS011;20128;45.582;5.298;2023-04-03T13:29:52;8.50;;;5.68;;
33826;SDS011;20128;45.582;5.298;2023-04-03T13:32:20;10.68;;;6.30;;
33826;SDS011;20128;45.582;5.298;2023-04-03T13:34:49;9.23;;;7.10;;
33826;SDS011;20128;45.582;5.298;2023-04-03T13:37:19;7.63;;;5.22;;
33826;SDS011;20128;45.582;5.298;2023-04-03T13:39:45;8.10;;;5.68;;
33826;SDS011;20128;45.582;5.298;2023-04-03T13:42:25;11.23;;;4.65;;
33826;SDS011;20128;45.582;5.298;2023-04-03T13:47:42;10.32;;;5.65;;
33826;SDS011;20128;45.582;5.298;2023-04-03T13:53:02;8.02;;;4.53;;
33826;SDS011;20128;45.582;5.298;2023-04-03T13:55:36;9.35;;;4.50;;
33826;SDS011;20128;45.582;5.298;2023-04-03T13:58:24;9.30;;;5.82;;
33826;SDS011;20128;45.582;5.298;2023-04-03T14:03:29;6.93;;;4.70;;
33826;SDS011;20128;45.582;5.298;2023-04-03T14:05:57;13.35;;;6.40;;
33826;SDS011;20128;45.582;5.298;2023-04-03T14:08:23;6.13;;;3.83;;
33826;SDS011;20128;45.582;5.298;2023-04-03T14:10:49;7.45;;;4.90;;
33826;SDS011;20128;45.582;5.298;2023-04-03T14:13:17;7.80;;;5.25;;
33826;SDS011;20128;45.582;5.298;2023-04-03T14:15:44;9.27;;;4.28;;
33826;SDS011;20128;45.582;5.298;2023-04-03T14:18:13;8.20;;;5.25;;
33826;SDS011;20128;45.582;5.298;2023-04-03T14:20:42;8.60;;;4.80;;
33826;SDS011;20128;45.582;5.298;2023-04-03T14:23:08;7.32;;;4.50;;
33826;SDS011;20128;45.582;5.298;2023-04-03T14:25:35;7.10;;;4.43;;
33826;SDS011;20128;45.582;5.298;2023-04-03T14:28:01;10.77;;;5.70;;
33826;SDS011;20128;45.582;5.298;2023-04-03T14:30:36;10.45;;;5.00;;
33826;SDS011;20128;45.582;5.298;2023-04-03T14:33:03;7.03;;;3.85;;
33826;SDS011;20128;45.582;5.298;2023-04-03T14:35:31;8.05;;;4.32;;
33826;SDS011;20128;45.582;5.298;2023-04-03T14:37:56;6.35;;;4.18;;
33826;SDS011;20128;45.582;5.298;2023-04-03T14:40:24;7.78;;;4.57;;
33826;SDS011;20128;45.582;5.298;2023-04-03T14:42:52;6.00;;;3.97;;
33826;SDS011;20128;45.582;5.298;2023-04-03T14:45:20;5.65;;;3.35;;
33826;SDS011;20128;45.582;5.298;2023-04-03T14:47:47;6.85;;;4.10;;
33826;SDS011;20128;45.582;5.298;2023-04-03T14:50:17;7.18;;;4.32;;
33826;SDS011;20128;45.582;5.298;2023-04-03T14:52:48;10.55;;;5.65;;
33826;SDS011;20128;45.582;5.298;2023-04-03T14:55:17;6.03;;;4.13;;
33826;SDS011;20128;45.582;5.298;2023-04-03T14:57:45;4.22;;;3.30;;
33826;SDS011;20128;45.582;5.298;2023-04-03T15:00:20;7.30;;;3.72;;
33826;SDS011;20128;45.582;5.298;2023-04-03T15:02:47;8.70;;;3.88;;
33826;SDS011;20128;45.582;5.298;2023-04-03T15:05:13;9.63;;;4.30;;
33826;SDS011;20128;45.582;5.298;2023-04-03T15:07:44;5.47;;;3.67;;
33826;SDS011;20128;45.582;5.298;2023-04-03T15:12:40;7.00;;;3.63;;
33826;SDS011;20128;45.582;5.298;2023-04-03T15:15:06;5.18;;;4.07;;
33826;SDS011;20128;45.582;5.298;2023-04-03T15:17:32;8.10;;;4.72;;
33826;SDS011;20128;45.582;5.298;2023-04-03T15:19:59;6.35;;;4.00;;
33826;SDS011;20128;45.582;5.298;2023-04-03T15:22:25;5.78;;;4.10;;
33826;SDS011;20128;45.582;5.298;2023-04-03T15:24:51;8.15;;;4.30;;
33826;SDS011;20128;45.582;5.298;2023-04-03T15:27:17;6.63;;;4.40;;
33826;SDS011;20128;45.582;5.298;2023-04-03T15:29:43;7.38;;;3.85;;
33826;SDS011;20128;45.582;5.298;2023-04-03T15:32:09;6.20;;;4.10;;
33826;SDS011;20128;45.582;5.298;2023-04-03T15:34:36;6.22;;;3.97;;
33826;SDS011;20128;45.582;5.298;2023-04-03T15:37:02;6.90;;;4.50;;
33826;SDS011;20128;45.582;5.298;2023-04-03T15:39:27;5.50;;;3.00;;
33826;SDS011;20128;45.582;5.298;2023-04-03T15:41:53;8.07;;;4.18;;
33826;SDS011;20128;45.582;5.298;2023-04-03T15:44:20;5.63;;;3.47;;
33826;SDS011;20128;45.582;5.298;2023-04-03T15:46:46;7.82;;;4.28;;
33826;SDS011;20128;45.582;5.298;2023-04-03T15:49:13;3.60;;;3.25;;
33826;SDS011;20128;45.582;5.298;2023-04-03T15:51:40;7.22;;;3.40;;
33826;SDS011;20128;45.582;5.298;2023-04-03T15:54:06;6.90;;;3.40;;
33826;SDS011;20128;45.582;5.298;2023-04-03T15:56:31;6.25;;;3.50;;
33826;SDS011;20128;45.582;5.298;2023-04-03T15:58:57;5.35;;;3.22;;
33826;SDS011;20128;45.582;5.298;2023-04-03T16:01:22;4.97;;;2.97;;
33826;SDS011;20128;45.582;5.298;2023-04-03T16:03:48;7.38;;;2.70;;
33826;SDS011;20128;45.582;5.298;2023-04-03T16:06:14;6.82;;;2.88;;
33826;SDS011;20128;45.582;5.298;2023-04-03T16:08:42;5.00;;;2.63;;
33826;SDS011;20128;45.582;5.298;2023-04-03T16:11:08;6.22;;;3.28;;
33826;SDS011;20128;45.582;5.298;2023-04-03T16:13:34;4.18;;;2.80;;
33826;SDS011;20128;45.582;5.298;2023-04-03T16:16:00;4.05;;;2.95;;
33826;SDS011;20128;45.582;5.298;2023-04-03T16:18:26;5.72;;;3.20;;
33826;SDS011;20128;45.582;5.298;2023-04-03T16:20:53;6.93;;;2.85;;
33826;SDS011;20128;45.582;5.298;2023-04-03T16:23:19;7.25;;;3.35;;
33826;SDS011;20128;45.582;5.298;2023-04-03T16:25:45;4.03;;;2.50;;
33826;SDS011;20128;45.582;5.298;2023-04-03T16:28:15;4.47;;;2.40;;
33826;SDS011;20128;45.582;5.298;2023-04-03T16:30:45;3.35;;;2.65;;
33826;SDS011;20128;45.582;5.298;2023-04-03T16:33:12;6.63;;;2.45;;
33826;SDS011;20128;45.582;5.298;2023-04-03T16:35:38;5.50;;;2.55;;
33826;SDS011;20128;45.582;5.298;2023-04-03T16:38:04;3.40;;;2.33;;
33826;SDS011;20128;45.582;5.298;2023-04-03T16:40:29;2.83;;;2.15;;
33826;SDS011;20128;45.582;5.298;2023-04-03T16:42:55;13.98;;;3.30;;
33826;SDS011;20128;45.582;5.298;2023-04-03T16:45:21;3.53;;;2.65;;
33826;SDS011;20128;45.582;5.298;2023-04-03T16:47:46;3.70;;;2.40;;
33826;SDS011;20128;45.582;5.298;2023-04-03T16:50:12;4.10;;;2.60;;
33826;SDS011;20128;45.582;5.298;2023-04-03T16:52:38;2.45;;;2.25;;
33826;SDS011;20128;45.582;5.298;2023-04-03T16:55:04;3.55;;;2.42;;